Terminal Aerodrome Forecast
Issued by NWS Pocatello, ID

Home | Current Version | Previous Version | Text Only | Print | Product List | Glossary On
Versions: 1 2 3 4 5 6 7 8 9 10 11 12 13 14 15 16 17 18 19 20 21 22 23
000
FTUS45 KPIH 060520
TAFIDA
TAF
KIDA 060520Z 0606/0706 VRB06KT P6SM FEW040
     FM061600 02008KT P6SM OVC040
     FM062300 01006KT 5SM -SN OVC020
     FM070200 22006KT 3SM -SN OVC012=

USA.gov is the U.S. government's official web portal to all federal, state and local government web resources and services.